• Join FlightAware (Why Join?)
  • Login
  • US Flag 
01:09PM EDT


 

Airport Tracker/Info


-or-


 

Live Flight TrackerFlight Track Log ✈ RPA4937 ✈ 10-May-2013 ✈ KEWR - KPWM

Flight Track Log - Related Links

Times and Time Zones

All times are in EDT time to prevent confusion due to time zone crossing. See the RPA4937 flight status page for this flight to view local times or setup timezone preferences in your user account.

Time Position Orientation Groundspeed Altitude Reporting Facility
EDT Latitude Longitude Course Direction KTS MPH feet Rate Location/Type
08:46AM 40.6500 -74.1833 90° East 183 211 1,100  Level New York TRACON
08:47AM 40.6000 -74.2167 207° Southwest 229 264 2,700 1,800 Climbing New York TRACON
08:48AM 40.6333 -74.2667 311° West 233 268 4,700 1,620 Climbing New York TRACON
08:49AM 40.9819 -74.1432 North  Level FlightAware Approximate
08:49AM 40.7000 -74.2667 360° North 253 291 6,000  Level New York TRACON
08:50AM 41.0821 -74.1348 North  Level FlightAware Approximate
08:50AM 40.7667 -74.2333 21° North 262 302 6,000  Level New York TRACON
08:51AM 41.1592 -74.0921 74° East  Level FlightAware Approximate
08:51AM 40.8333 -74.2167 11° North 261 300 6,000  Level New York TRACON
08:52AM 41.1833 -73.9634 90° East  Level FlightAware Approximate
08:53AM 40.9167 -74.2000 North 263 303 6,100  Level New York TRACON
08:53AM 40.9833 -74.1833 11° North 263 303 6,100  Level New York TRACON
08:54AM 41.0500 -74.1667 11° North 265 305 6,100  Level New York TRACON
08:55AM 41.1333 -74.1500 North 269 310 6,100 60 Level New York TRACON
08:58AM 41.1936 -73.9819 64° Northeast 265 305 6,300 660 Climbing Boston Center
08:59AM 41.2158 -73.8722 75° East 270 311 8,200 1,680 Climbing Boston Center
09:00AM 41.2400 -73.7650 73° East 275 316 10,000 1,680 Climbing Boston Center
09:01AM 41.2686 -73.6442 72° East 281 323 12,000 1,200 Climbing Boston Center
09:02AM 41.3172 -73.5678 50° Northeast 281 323 12,400 720 Climbing Boston Center
09:03AM 41.3786 -73.4719 49° Northeast 299 344 13,500 900 Climbing Boston Center
09:04AM 41.4314 -73.3925 48° Northeast 312 359 14,200 780 Climbing Boston Center
09:05AM 41.4969 -73.2936 48° Northeast 312 359 15,100 780 Climbing Boston Center
09:06AM 41.5558 -73.2194 43° Northeast 317 365 15,800 780 Climbing Boston Center
09:07AM 41.6231 -73.1289 45° Northeast 317 365 16,700 720 Climbing Boston Center
09:08AM 41.6981 -73.1186 North 283 326 17,300 660 Climbing Boston Center
09:09AM 41.7897 -73.1361 352° North 288 331 18,100 720 Climbing Boston Center
09:10AM 41.8647 -73.1453 355° North 295 339 18,800 600 Climbing Boston Center
09:11AM 41.9519 -73.1658 350° North 295 339 19,400 540 Climbing Boston Center
09:12AM 42.0375 -73.1781 354° North 295 339 20,000 540 Climbing Boston Center
09:13AM 42.1394 -73.1961 353° North 301 346 20,700 600 Climbing Boston Center
09:14AM 42.2228 -73.2139 351° North 301 346 21,200 600 Climbing Boston Center
09:15AM 42.3100 -73.2261 354° North 301 346 21,900 600 Climbing Boston Center
09:16AM 42.3978 -73.2300 358° North 306 352 22,500 720 Climbing Boston Center
09:17AM 42.4789 -73.2422 354° North 306 352 23,400 840 Climbing Boston Center
09:18AM 42.5578 -73.2658 348° North 306 352 24,200 660 Climbing Boston Center
09:19AM 42.6164 -73.2386 19° North 270 311 24,800 360 Climbing Boston Center
09:20AM 42.6672 -73.1292 58° Northeast 261 300 25,000 60 Climbing Boston Center
09:21AM 42.7181 -72.9911 63° Northeast 300 345 25,000  Level Boston Center
09:22AM 42.7664 -72.8728 61° Northeast 362 417 25,000 -360 Level Boston Center
09:23AM 42.8167 -72.7600 59° Northeast 357 411 24,300 -780 Descending Boston Center
09:24AM 42.8567 -72.6581 62° Northeast 362 417 23,500 -960 Descending Boston Center
09:25AM 42.9150 -72.5281 58° Northeast 362 417 22,400 -1,080 Descending Boston Center
09:26AM 42.9672 -72.4033 60° Northeast 361 415 21,400 -1,200 Descending Boston Center
09:27AM 43.0150 -72.2811 62° Northeast 361 415 20,100 -1,800 Descending Boston Center
09:28AM 43.0647 -72.1503 62° Northeast 356 410 17,900 -2,100 Descending Boston Center
09:29AM 43.1083 -72.0392 62° Northeast 356 410 16,000 -2,100 Descending Boston Center
09:30AM 43.1597 -71.9078 62° Northeast 356 410 13,700 -1,980 Descending Boston Center
09:31AM 43.2031 -71.8019 61° Northeast 351 404 12,100 -1,260 Descending Boston Center
09:32AM 43.2525 -71.6847 60° Northeast 336 387 11,200 -600 Descending Boston Center
09:33AM 43.2850 -71.5958 63° Northeast 325 374 11,000 -120 Descending Boston Center
09:34AM 43.3361 -71.4725 60° Northeast 314 361 11,000  Level Boston Center
09:35AM 43.3850 -71.3431 63° Northeast 314 361 11,000  Level Boston Center
09:36AM 43.4278 -71.2364 61° Northeast 314 361 11,000  Level Boston Center
09:37AM 43.4683 -71.1300 62° Northeast 314 361 11,000  Level Boston Center
09:38AM 43.5003 -71.0147 69° East 314 361 11,000 -180 Level Boston Center
09:39AM 43.5322 -70.9050 68° East 314 361 10,700 -780 Descending Boston Center
09:40AM 43.5600 -70.8069 69° East 278 320 9,500 -1,380 Descending Boston Center
09:41AM 43.5878 -70.7175 67° East 270 311 8,000 -1,800 Descending Boston Center
09:42AM 43.6197 -70.6161 66° East 264 304 6,000 -2,040 Descending Boston Center
09:43AM 43.6775 -70.5914 17° North 227 261 4,000 -1,740 Descending Boston Center
09:44AM 43.6825 -70.5108 85° East 194 223 2,600 -1,440 Descending Boston Center